sensor_id;sensor_type;location;lat;lon;timestamp;P1;durP1;ratioP1;P2;durP2;ratioP2
67979;SDS011;54760;47.490;19.030;2023-03-04T17:05:38;19.10;;;11.77;;
67979;SDS011;54760;47.490;19.030;2023-03-04T17:08:04;16.73;;;9.85;;
67979;SDS011;54760;47.490;19.030;2023-03-04T17:10:29;18.90;;;11.38;;
67979;SDS011;54760;47.490;19.030;2023-03-04T17:12:55;19.55;;;10.50;;
67979;SDS011;54760;47.490;19.030;2023-03-04T17:15:20;21.65;;;10.85;;
67979;SDS011;54760;47.490;19.030;2023-03-04T17:17:46;21.85;;;10.90;;
67979;SDS011;54760;47.490;19.030;2023-03-04T17:20:15;27.95;;;9.43;;
67979;SDS011;54760;47.490;19.030;2023-03-04T17:22:42;21.92;;;9.27;;
67979;SDS011;54760;47.490;19.030;2023-03-04T17:25:08;19.50;;;10.43;;
67979;SDS011;54760;47.490;19.030;2023-03-04T17:27:35;19.52;;;9.93;;
67979;SDS011;54760;47.490;19.030;2023-03-04T17:30:01;17.27;;;10.00;;
67979;SDS011;54760;47.490;19.030;2023-03-04T17:32:27;16.00;;;9.68;;
67979;SDS011;54760;47.490;19.030;2023-03-04T17:34:56;17.33;;;10.18;;
67979;SDS011;54760;47.490;19.030;2023-03-04T17:37:22;17.40;;;9.27;;
67979;SDS011;54760;47.490;19.030;2023-03-04T17:39:47;17.17;;;10.20;;
67979;SDS011;54760;47.490;19.030;2023-03-04T17:42:13;19.27;;;9.98;;
67979;SDS011;54760;47.490;19.030;2023-03-04T17:44:38;17.80;;;10.57;;
67979;SDS011;54760;47.490;19.030;2023-03-04T17:47:04;17.42;;;10.40;;
67979;SDS011;54760;47.490;19.030;2023-03-04T17:49:30;20.10;;;10.63;;
67979;SDS011;54760;47.490;19.030;2023-03-04T17:51:58;18.33;;;11.65;;
67979;SDS011;54760;47.490;19.030;2023-03-04T17:54:23;18.67;;;11.15;;
67979;SDS011;54760;47.490;19.030;2023-03-04T17:56:49;19.83;;;11.48;;
67979;SDS011;54760;47.490;19.030;2023-03-04T17:59:15;18.90;;;10.48;;
67979;SDS011;54760;47.490;19.030;2023-03-04T18:01:42;18.98;;;11.05;;
67979;SDS011;54760;47.490;19.030;2023-03-04T18:04:09;18.95;;;11.05;;
67979;SDS011;54760;47.490;19.030;2023-03-04T18:06:35;19.48;;;11.80;;
67979;SDS011;54760;47.490;19.030;2023-03-04T18:09:00;18.12;;;11.00;;
67979;SDS011;54760;47.490;19.030;2023-03-04T18:11:26;19.23;;;11.40;;
67979;SDS011;54760;47.490;19.030;2023-03-04T18:13:53;15.98;;;9.18;;
67979;SDS011;54760;47.490;19.030;2023-03-04T18:16:18;21.02;;;12.57;;
67979;SDS011;54760;47.490;19.030;2023-03-04T18:18:51;22.62;;;13.07;;
67979;SDS011;54760;47.490;19.030;2023-03-04T18:21:17;21.02;;;12.37;;
67979;SDS011;54760;47.490;19.030;2023-03-04T18:23:43;23.90;;;13.20;;
67979;SDS011;54760;47.490;19.030;2023-03-04T18:26:09;23.12;;;13.68;;
67979;SDS011;54760;47.490;19.030;2023-03-04T18:28:35;20.17;;;12.02;;
67979;SDS011;54760;47.490;19.030;2023-03-04T18:31:00;22.98;;;13.45;;
67979;SDS011;54760;47.490;19.030;2023-03-04T18:33:26;24.00;;;12.75;;
67979;SDS011;54760;47.490;19.030;2023-03-04T18:35:59;26.42;;;13.55;;
67979;SDS011;54760;47.490;19.030;2023-03-04T18:38:27;23.50;;;13.73;;
67979;SDS011;54760;47.490;19.030;2023-03-04T18:41:00;21.15;;;12.75;;
67979;SDS011;54760;47.490;19.030;2023-03-04T18:43:28;24.63;;;12.82;;
67979;SDS011;54760;47.490;19.030;2023-03-04T18:48:28;20.80;;;12.90;;
67979;SDS011;54760;47.490;19.030;2023-03-04T18:50:56;19.50;;;10.30;;
67979;SDS011;54760;47.490;19.030;2023-03-04T18:53:26;18.17;;;11.05;;
67979;SDS011;54760;47.490;19.030;2023-03-04T18:55:53;15.07;;;9.43;;
67979;SDS011;54760;47.490;19.030;2023-03-04T18:58:25;17.27;;;9.60;;
67979;SDS011;54760;47.490;19.030;2023-03-04T19:00:52;15.05;;;9.07;;
67979;SDS011;54760;47.490;19.030;2023-03-04T19:03:19;21.30;;;7.65;;
67979;SDS011;54760;47.490;19.030;2023-03-04T19:05:44;15.73;;;8.15;;
67979;SDS011;54760;47.490;19.030;2023-03-04T19:08:10;19.23;;;6.95;;
67979;SDS011;54760;47.490;19.030;2023-03-04T19:10:35;11.90;;;7.60;;
67979;SDS011;54760;47.490;19.030;2023-03-04T19:13:01;13.90;;;7.87;;
67979;SDS011;54760;47.490;19.030;2023-03-04T19:15:27;15.45;;;7.70;;
67979;SDS011;54760;47.490;19.030;2023-03-04T19:17:53;11.75;;;7.20;;
67979;SDS011;54760;47.490;19.030;2023-03-04T19:20:19;11.05;;;6.60;;
67979;SDS011;54760;47.490;19.030;2023-03-04T19:22:44;12.00;;;6.85;;
67979;SDS011;54760;47.490;19.030;2023-03-04T19:25:10;10.80;;;6.95;;
67979;SDS011;54760;47.490;19.030;2023-03-04T19:27:36;11.90;;;6.45;;
67979;SDS011;54760;47.490;19.030;2023-03-04T19:30:02;10.95;;;6.32;;
67979;SDS011;54760;47.490;19.030;2023-03-04T19:32:28;10.77;;;6.47;;
67979;SDS011;54760;47.490;19.030;2023-03-04T19:34:54;11.82;;;6.78;;
67979;SDS011;54760;47.490;19.030;2023-03-04T19:37:19;9.73;;;6.05;;
67979;SDS011;54760;47.490;19.030;2023-03-04T19:39:45;8.43;;;5.93;;
67979;SDS011;54760;47.490;19.030;2023-03-04T19:42:13;12.80;;;6.12;;
67979;SDS011;54760;47.490;19.030;2023-03-04T19:44:39;10.57;;;6.05;;
67979;SDS011;54760;47.490;19.030;2023-03-04T19:47:05;8.20;;;4.95;;
67979;SDS011;54760;47.490;19.030;2023-03-04T19:49:31;11.43;;;5.70;;
67979;SDS011;54760;47.490;19.030;2023-03-04T19:51:56;8.82;;;5.62;;
67979;SDS011;54760;47.490;19.030;2023-03-04T19:54:22;7.90;;;5.37;;
67979;SDS011;54760;47.490;19.030;2023-03-04T19:56:48;6.75;;;5.00;;
67979;SDS011;54760;47.490;19.030;2023-03-04T19:59:13;8.02;;;5.15;;
67979;SDS011;54760;47.490;19.030;2023-03-04T20:01:39;8.50;;;5.35;;
67979;SDS011;54760;47.490;19.030;2023-03-04T20:04:06;10.88;;;5.60;;
67979;SDS011;54760;47.490;19.030;2023-03-04T20:06:37;8.63;;;5.70;;
67979;SDS011;54760;47.490;19.030;2023-03-04T20:09:05;10.65;;;5.82;;
67979;SDS011;54760;47.490;19.030;2023-03-04T20:11:31;8.88;;;5.97;;
67979;SDS011;54760;47.490;19.030;2023-03-04T20:13:57;11.73;;;5.95;;
67979;SDS011;54760;47.490;19.030;2023-03-04T20:16:24;8.77;;;5.20;;
67979;SDS011;54760;47.490;19.030;2023-03-04T20:18:50;8.85;;;6.12;;
67979;SDS011;54760;47.490;19.030;2023-03-04T20:21:16;7.82;;;5.65;;
67979;SDS011;54760;47.490;19.030;2023-03-04T20:23:41;10.57;;;5.72;;
67979;SDS011;54760;47.490;19.030;2023-03-04T20:26:06;6.80;;;5.00;;
67979;SDS011;54760;47.490;19.030;2023-03-04T20:28:32;9.10;;;5.40;;
67979;SDS011;54760;47.490;19.030;2023-03-04T20:33:44;14.05;;;7.20;;
67979;SDS011;54760;47.490;19.030;2023-03-04T20:36:12;7.75;;;5.50;;
67979;SDS011;54760;47.490;19.030;2023-03-04T20:38:38;10.93;;;5.82;;
67979;SDS011;54760;47.490;19.030;2023-03-04T20:41:03;8.30;;;5.60;;
67979;SDS011;54760;47.490;19.030;2023-03-04T20:43:29;8.10;;;5.05;;
67979;SDS011;54760;47.490;19.030;2023-03-04T20:45:56;7.90;;;5.70;;
67979;SDS011;54760;47.490;19.030;2023-03-04T20:49:00;7.53;;;5.30;;
67979;SDS011;54760;47.490;19.030;2023-03-04T20:51:27;9.88;;;5.43;;
67979;SDS011;54760;47.490;19.030;2023-03-04T20:53:54;9.15;;;5.40;;
67979;SDS011;54760;47.490;19.030;2023-03-04T20:56:20;10.80;;;5.90;;
67979;SDS011;54760;47.490;19.030;2023-03-04T20:58:47;10.30;;;6.05;;
67979;SDS011;54760;47.490;19.030;2023-03-04T21:01:12;8.75;;;6.03;;
67979;SDS011;54760;47.490;19.030;2023-03-04T21:03:38;9.88;;;5.97;;
67979;SDS011;54760;47.490;19.030;2023-03-04T21:06:05;10.70;;;5.85;;
67979;SDS011;54760;47.490;19.030;2023-03-04T21:08:32;9.48;;;5.10;;
67979;SDS011;54760;47.490;19.030;2023-03-04T21:10:57;9.63;;;5.80;;
67979;SDS011;54760;47.490;19.030;2023-03-04T21:13:23;9.02;;;5.53;;
67979;SDS011;54760;47.490;19.030;2023-03-04T21:15:54;9.88;;;5.97;;
67979;SDS011;54760;47.490;19.030;2023-03-04T21:18:19;9.57;;;5.87;;
67979;SDS011;54760;47.490;19.030;2023-03-04T21:20:45;10.48;;;5.90;;
67979;SDS011;54760;47.490;19.030;2023-03-04T21:23:12;9.45;;;5.47;;
67979;SDS011;54760;47.490;19.030;2023-03-04T21:25:37;9.50;;;5.87;;
67979;SDS011;54760;47.490;19.030;2023-03-04T21:28:04;8.27;;;5.60;;
67979;SDS011;54760;47.490;19.030;2023-03-04T21:30:30;10.80;;;6.30;;
67979;SDS011;54760;47.490;19.030;2023-03-04T21:32:55;8.63;;;5.68;;
67979;SDS011;54760;47.490;19.030;2023-03-04T21:35:21;11.12;;;5.70;;
67979;SDS011;54760;47.490;19.030;2023-03-04T21:37:46;9.50;;;6.12;;
67979;SDS011;54760;47.490;19.030;2023-03-04T21:40:11;8.45;;;5.80;;
67979;SDS011;54760;47.490;19.030;2023-03-04T21:42:37;8.50;;;5.47;;
67979;SDS011;54760;47.490;19.030;2023-03-04T21:45:04;10.05;;;6.15;;
67979;SDS011;54760;47.490;19.030;2023-03-04T21:47:31;8.55;;;5.70;;
67979;SDS011;54760;47.490;19.030;2023-03-04T21:49:58;8.68;;;5.65;;
67979;SDS011;54760;47.490;19.030;2023-03-04T21:52:23;8.05;;;5.07;;
67979;SDS011;54760;47.490;19.030;2023-03-04T21:54:49;8.82;;;5.80;;
67979;SDS011;54760;47.490;19.030;2023-03-04T21:57:14;10.57;;;5.18;;
67979;SDS011;54760;47.490;19.030;2023-03-04T21:59:40;9.88;;;5.70;;
67979;SDS011;54760;47.490;19.030;2023-03-04T22:02:06;8.43;;;5.87;;
67979;SDS011;54760;47.490;19.030;2023-03-04T22:04:38;10.85;;;5.50;;
67979;SDS011;54760;47.490;19.030;2023-03-04T22:07:05;9.55;;;5.82;;
67979;SDS011;54760;47.490;19.030;2023-03-04T22:09:31;9.48;;;5.95;;
67979;SDS011;54760;47.490;19.030;2023-03-04T22:11:56;9.73;;;5.43;;
67979;SDS011;54760;47.490;19.030;2023-03-04T22:14:22;7.97;;;5.47;;
67979;SDS011;54760;47.490;19.030;2023-03-04T22:16:47;15.05;;;5.87;;
67979;SDS011;54760;47.490;19.030;2023-03-04T22:19:14;10.52;;;6.50;;
67979;SDS011;54760;47.490;19.030;2023-03-04T22:21:40;10.57;;;6.30;;
67979;SDS011;54760;47.490;19.030;2023-03-04T22:24:05;11.77;;;6.20;;
67979;SDS011;54760;47.490;19.030;2023-03-04T22:26:31;9.77;;;5.90;;
67979;SDS011;54760;47.490;19.030;2023-03-04T22:28:57;9.05;;;6.00;;
67979;SDS011;54760;47.490;19.030;2023-03-04T22:31:27;9.18;;;6.18;;
67979;SDS011;54760;47.490;19.030;2023-03-04T22:34:04;9.45;;;5.75;;
67979;SDS011;54760;47.490;19.030;2023-03-04T22:36:31;8.93;;;6.03;;
67979;SDS011;54760;47.490;19.030;2023-03-04T22:38:59;11.40;;;5.55;;
67979;SDS011;54760;47.490;19.030;2023-03-04T22:41:25;10.20;;;5.82;;
67979;SDS011;54760;47.490;19.030;2023-03-04T22:43:51;9.88;;;5.78;;
67979;SDS011;54760;47.490;19.030;2023-03-04T22:46:18;8.88;;;5.43;;
67979;SDS011;54760;47.490;19.030;2023-03-04T22:48:46;8.15;;;5.57;;
67979;SDS011;54760;47.490;19.030;2023-03-04T22:51:12;9.73;;;5.97;;
67979;SDS011;54760;47.490;19.030;2023-03-04T22:53:38;10.18;;;5.35;;
67979;SDS011;54760;47.490;19.030;2023-03-04T22:56:07;9.25;;;5.28;;
67979;SDS011;54760;47.490;19.030;2023-03-04T22:58:33;9.40;;;4.85;;
67979;SDS011;54760;47.490;19.030;2023-03-04T23:00:59;7.50;;;4.70;;
67979;SDS011;54760;47.490;19.030;2023-03-04T23:03:26;8.48;;;5.62;;
67979;SDS011;54760;47.490;19.030;2023-03-04T23:08:40;8.05;;;5.45;;
67979;SDS011;54760;47.490;19.030;2023-03-04T23:11:08;9.25;;;5.37;;
67979;SDS011;54760;47.490;19.030;2023-03-04T23:13:35;7.47;;;4.37;;
67979;SDS011;54760;47.490;19.030;2023-03-04T23:16:02;8.75;;;5.07;;
67979;SDS011;54760;47.490;19.030;2023-03-04T23:18:30;12.05;;;5.07;;
67979;SDS011;54760;47.490;19.030;2023-03-04T23:20:56;9.38;;;4.75;;
67979;SDS011;54760;47.490;19.030;2023-03-04T23:23:21;8.80;;;5.65;;
67979;SDS011;54760;47.490;19.030;2023-03-04T23:25:47;8.30;;;5.03;;
67979;SDS011;54760;47.490;19.030;2023-03-04T23:28:15;6.85;;;4.75;;
67979;SDS011;54760;47.490;19.030;2023-03-04T23:30:41;9.32;;;5.35;;
67979;SDS011;54760;47.490;19.030;2023-03-04T23:33:07;10.07;;;6.18;;
67979;SDS011;54760;47.490;19.030;2023-03-04T23:35:32;10.73;;;5.28;;
67979;SDS011;54760;47.490;19.030;2023-03-04T23:37:58;9.35;;;5.50;;
67979;SDS011;54760;47.490;19.030;2023-03-04T23:40:23;9.80;;;5.40;;
67979;SDS011;54760;47.490;19.030;2023-03-04T23:42:49;8.98;;;5.72;;
67979;SDS011;54760;47.490;19.030;2023-03-04T23:45:14;13.57;;;6.68;;
67979;SDS011;54760;47.490;19.030;2023-03-04T23:47:41;12.13;;;6.25;;
67979;SDS011;54760;47.490;19.030;2023-03-04T23:50:07;11.32;;;6.85;;
67979;SDS011;54760;47.490;19.030;2023-03-04T23:52:33;9.45;;;6.07;;
67979;SDS011;54760;47.490;19.030;2023-03-04T23:54:58;13.70;;;7.07;;
67979;SDS011;54760;47.490;19.030;2023-03-04T23:57:23;11.95;;;6.90;;
67979;SDS011;54760;47.490;19.030;2023-03-04T23:59:49;10.63;;;6.15;;
